Time;durP1;ratioP1;P1;durP2;ratioP2;P2;SDS_P1;SDS_P2;PMS_P1;PMS_P2;Temp;Humidity;BMP_temperature;BMP_pressure;BME280_temperature;BME280_humidity;BME280_pressure;Samples;Min_cycle;Max_cycle;Signal;HPM_P1;HPM_P2
2022/03/04 13:36:18;;;;;;;7.28;4.10;;;;;;;;;;7370537;19;132550;-13
2022/03/04 13:38:49;;;;;;;7.07;4.28;;;;;;;;;;7364778;19;153720;-15
2022/03/04 13:41:24;;;;;;;10.15;3.90;;;;;;;;;;7364625;19;161952;-13
2022/03/04 13:44:07;;;;;;;8.90;4.13;;;;;;;;;;7363852;19;162611;-13
2022/03/04 13:46:39;;;;;;;8.07;3.75;;;;;;;;;;7364772;19;154072;-13
2022/03/04 13:49:10;;;;;;;9.07;4.30;;;;;;;;;;7364406;19;153708;-22
2022/03/04 13:51:44;;;;;;;7.03;3.55;;;;;;;;;;7363861;19;161905;-14
2022/03/04 13:54:16;;;;;;;5.97;3.63;;;;;;;;;;7363948;19;162669;-13
2022/03/04 13:56:47;;;;;;;6.72;3.40;;;;;;;;;;7364503;19;153889;-13
2022/03/04 13:59:18;;;;;;;8.18;3.22;;;;;;;;;;7364414;19;153513;-13
2022/03/04 14:01:49;;;;;;;6.15;3.60;;;;;;;;;;7363758;19;161819;-14
2022/03/04 14:04:22;;;;;;;8.40;4.18;;;;;;;;;;7363167;19;162371;-13
2022/03/04 14:06:57;;;;;;;6.53;3.50;;;;;;;;;;7364245;19;153941;-14
2022/03/04 14:09:32;;;;;;;6.40;3.53;;;;;;;;;;7364526;19;153511;-15
2022/03/04 14:12:03;;;;;;;7.50;4.07;;;;;;;;;;7363736;19;162163;-14
2022/03/04 14:14:34;;;;;;;14.75;3.60;;;;;;;;;;7363573;19;162528;-15
2022/03/04 14:17:07;;;;;;;6.22;3.53;;;;;;;;;;7363844;19;153977;-15
2022/03/04 14:19:39;;;;;;;6.03;3.47;;;;;;;;;;7363795;19;153553;-15
2022/03/04 14:22:13;;;;;;;8.32;3.65;;;;;;;;;;7365348;19;162000;-14
2022/03/04 14:24:45;;;;;;;10.15;4.70;;;;;;;;;;7366028;19;162533;-14
2022/03/04 14:27:16;;;;;;;8.52;3.80;;;;;;;;;;7366377;19;154027;-14
2022/03/04 14:29:48;;;;;;;5.93;2.88;;;;;;;;;;7366613;19;153797;-15
2022/03/04 14:32:20;;;;;;;6.17;3.60;;;;;;;;;;7366805;19;161961;-13
2022/03/04 14:34:51;;;;;;;6.15;3.30;;;;;;;;;;7365263;19;162809;-15
2022/03/04 14:37:25;;;;;;;11.98;5.32;;;;;;;;;;7337692;19;153893;-15
2022/03/04 14:39:56;;;;;;;9.57;3.90;;;;;;;;;;7334592;19;153813;-15
2022/03/04 14:42:28;;;;;;;9.65;4.22;;;;;;;;;;7334106;19;161854;-13
2022/03/04 14:45:00;;;;;;;7.20;3.58;;;;;;;;;;7331866;19;162455;-14
2022/03/04 14:47:31;;;;;;;7.45;4.00;;;;;;;;;;7334244;19;153968;-13
2022/03/04 14:50:03;;;;;;;8.05;3.42;;;;;;;;;;7334131;19;153687;-15
2022/03/04 14:52:40;;;;;;;6.40;4.05;;;;;;;;;;7333763;19;161806;-15
2022/03/04 14:55:13;;;;;;;6.68;3.83;;;;;;;;;;7333569;19;162870;-15
2022/03/04 14:57:46;;;;;;;7.15;3.40;;;;;;;;;;7334591;19;154000;-14
2022/03/04 15:00:20;;;;;;;5.18;3.55;;;;;;;;;;7333131;19;153575;-14
2022/03/04 15:02:52;;;;;;;8.85;3.92;;;;;;;;;;7333578;19;161792;-16
2022/03/04 15:05:24;;;;;;;8.93;3.97;;;;;;;;;;7332311;19;162638;-15
2022/03/04 15:07:58;;;;;;;7.27;3.67;;;;;;;;;;7332800;19;154106;-14
2022/03/04 15:10:31;;;;;;;6.07;3.42;;;;;;;;;;7333405;19;153574;-15
2022/03/04 15:13:02;;;;;;;5.57;3.65;;;;;;;;;;7333164;19;162339;-14
2022/03/04 15:15:36;;;;;;;6.63;3.67;;;;;;;;;;7332903;19;162501;-14
2022/03/04 15:18:07;;;;;;;6.38;3.38;;;;;;;;;;7333340;19;153988;-14
2022/03/04 15:20:39;;;;;;;7.97;3.88;;;;;;;;;;7333295;19;153672;-14
2022/03/04 15:23:13;;;;;;;6.25;2.53;;;;;;;;;;7332978;19;161869;-15
2022/03/04 15:25:52;;;;;;;5.18;2.95;;;;;;;;;;7331519;19;162601;-15
2022/03/04 15:28:27;;;;;;;6.07;3.28;;;;;;;;;;7333761;19;153937;-13
2022/03/04 15:31:11;;;;;;;5.88;3.08;;;;;;;;;;7333081;19;153672;-15
2022/03/04 15:33:43;;;;;;;5.40;2.80;;;;;;;;;;7332791;19;162760;-14
2022/03/04 15:36:17;;;;;;;5.03;2.90;;;;;;;;;;7332413;19;162437;-14
2022/03/04 15:38:51;;;;;;;6.13;2.83;;;;;;;;;;7332976;19;153879;-15
2022/03/04 15:41:22;;;;;;;6.38;3.03;;;;;;;;;;7331652;19;153570;-13
2022/03/04 15:43:55;;;;;;;3.83;2.85;;;;;;;;;;7332484;19;161926;-14
2022/03/04 15:46:27;;;;;;;7.38;2.72;;;;;;;;;;7330514;19;162527;-15
2022/03/04 15:49:00;;;;;;;8.32;3.63;;;;;;;;;;7328945;19;154174;-14
2022/03/04 15:51:31;;;;;;;6.10;2.97;;;;;;;;;;7332628;19;153578;-14
2022/03/04 15:54:05;;;;;;;6.20;2.65;;;;;;;;;;7332223;19;161800;-14
2022/03/04 15:56:37;;;;;;;6.78;3.10;;;;;;;;;;7332188;19;162612;-14
2022/03/04 15:59:09;;;;;;;5.65;2.70;;;;;;;;;;7332442;19;153921;-13
2022/03/04 16:01:41;;;;;;;6.57;2.87;;;;;;;;;;7332101;19;153520;-15
2022/03/04 16:04:12;;;;;;;7.88;2.88;;;;;;;;;;7331937;19;162084;-15
2022/03/04 16:06:44;;;;;;;4.60;2.72;;;;;;;;;;7329661;19;162382;-14
2022/03/04 16:09:18;;;;;;;5.22;2.80;;;;;;;;;;7331989;19;153989;-13
2022/03/04 16:11:50;;;;;;;4.65;2.50;;;;;;;;;;7332001;19;153606;-15
2022/03/04 16:14:21;;;;;;;5.90;2.72;;;;;;;;;;7331698;19;161860;-14
2022/03/04 16:16:52;;;;;;;5.38;2.20;;;;;;;;;;7331483;19;162670;-15
2022/03/04 16:19:24;;;;;;;3.47;2.38;;;;;;;;;;7331773;19;154790;-15
2022/03/04 16:21:55;;;;;;;3.20;2.22;;;;;;;;;;7331452;19;153509;-15
2022/03/04 16:24:29;;;;;;;3.22;2.10;;;;;;;;;;7330125;19;162307;-14
2022/03/04 16:27:01;;;;;;;4.70;2.03;;;;;;;;;;7329244;19;162851;-15
2022/03/04 16:29:32;;;;;;;9.10;2.60;;;;;;;;;;7330043;19;153945;-13
2022/03/04 16:32:04;;;;;;;3.58;2.30;;;;;;;;;;7330542;19;153808;-14
2022/03/04 16:34:38;;;;;;;3.83;2.10;;;;;;;;;;7330040;19;161901;-15
2022/03/04 16:37:10;;;;;;;3.83;2.30;;;;;;;;;;7330905;19;162502;-13
2022/03/04 16:39:45;;;;;;;4.28;1.92;;;;;;;;;;7330074;19;154192;-14
2022/03/04 16:42:16;;;;;;;2.78;1.92;;;;;;;;;;7331022;19;153555;-14
2022/03/04 16:44:48;;;;;;;3.78;2.22;;;;;;;;;;7330698;19;161958;-13
2022/03/04 16:47:20;;;;;;;3.47;2.08;;;;;;;;;;7328504;19;162388;-16
2022/03/04 16:49:52;;;;;;;4.40;2.37;;;;;;;;;;7331081;19;153960;-14
2022/03/04 16:52:23;;;;;;;3.97;2.30;;;;;;;;;;7329550;19;153808;-15
2022/03/04 16:54:57;;;;;;;4.55;2.13;;;;;;;;;;7330285;19;162033;-13
2022/03/04 16:57:29;;;;;;;3.10;2.10;;;;;;;;;;7330446;19;162457;-15
2022/03/04 17:00:00;;;;;;;5.83;2.10;;;;;;;;;;7330082;19;153909;-14
2022/03/04 17:02:32;;;;;;;5.87;2.30;;;;;;;;;;7330654;19;153623;-14
2022/03/04 17:05:04;;;;;;;2.55;1.92;;;;;;;;;;7330228;19;161771;-14
2022/03/04 17:07:35;;;;;;;4.10;2.20;;;;;;;;;;7328453;19;162705;-15
2022/03/04 17:10:09;;;;;;;4.22;1.98;;;;;;;;;;7330722;19;153970;-14
2022/03/04 17:12:41;;;;;;;5.18;1.95;;;;;;;;;;7329168;19;153562;-15
2022/03/04 17:15:13;;;;;;;2.85;1.90;;;;;;;;;;7329964;19;162137;-14
2022/03/04 17:17:44;;;;;;;2.72;1.90;;;;;;;;;;7329955;19;163229;-13
2022/03/04 17:20:16;;;;;;;2.70;1.90;;;;;;;;;;7330427;19;154139;-13
2022/03/04 17:22:47;;;;;;;3.83;1.75;;;;;;;;;;7330103;19;153595;-14
2022/03/04 17:25:22;;;;;;;4.15;1.80;;;;;;;;;;7328729;19;162203;-15
2022/03/04 17:27:59;;;;;;;2.72;1.58;;;;;;;;;;7327256;19;162587;-13
2022/03/04 17:30:30;;;;;;;2.63;1.70;;;;;;;;;;7330040;19;153923;-13
2022/03/04 17:33:02;;;;;;;3.08;1.63;;;;;;;;;;7329920;19;153651;-14
2022/03/04 17:35:33;;;;;;;3.28;1.50;;;;;;;;;;7326171;19;161874;-14
2022/03/04 17:38:04;;;;;;;5.55;2.00;;;;;;;;;;7329405;19;162612;-14
2022/03/04 17:40:39;;;;;;;1.75;1.30;;;;;;;;;;7329748;19;153841;-14
2022/03/04 17:43:11;;;;;;;2.47;1.38;;;;;;;;;;7329506;19;153554;-14
2022/03/04 17:45:42;;;;;;;3.90;1.98;;;;;;;;;;7329115;19;162097;-14
2022/03/04 17:48:14;;;;;;;3.05;1.50;;;;;;;;;;7326978;19;162593;-13
2022/03/04 17:50:45;;;;;;;2.20;1.67;;;;;;;;;;7329421;19;153971;-15
2022/03/04 17:53:16;;;;;;;2.53;1.58;;;;;;;;;;7329325;19;153491;-13
2022/03/04 17:55:50;;;;;;;2.20;1.48;;;;;;;;;;7328956;19;161991;-14
2022/03/04 17:58:21;;;;;;;3.22;1.45;;;;;;;;;;7328686;19;162415;-15
2022/03/04 18:00:52;;;;;;;2.72;1.55;;;;;;;;;;7329105;19;154305;-15
2022/03/04 18:03:24;;;;;;;2.08;1.65;;;;;;;;;;7328676;19;153600;-15
2022/03/04 18:05:55;;;;;;;2.15;1.58;;;;;;;;;;7327351;19;161759;-14
2022/03/04 18:08:27;;;;;;;3.15;1.58;;;;;;;;;;7325087;19;162452;-14
2022/03/04 18:11:03;;;;;;;6.70;2.00;;;;;;;;;;7330763;19;153947;-14
2022/03/04 18:13:34;;;;;;;3.85;2.17;;;;;;;;;;7335609;19;153673;-14
2022/03/04 18:16:07;;;;;;;3.35;1.48;;;;;;;;;;7335297;19;162010;-15
2022/03/04 18:18:39;;;;;;;2.83;1.88;;;;;;;;;;7335321;19;162337;-14
2022/03/04 18:21:10;;;;;;;2.58;1.55;;;;;;;;;;7335445;19;154008;-14
2022/03/04 18:23:42;;;;;;;4.45;1.48;;;;;;;;;;7335348;19;153594;-16
2022/03/04 18:26:18;;;;;;;4.80;1.60;;;;;;;;;;7334483;19;161752;-15
2022/03/04 18:28:50;;;;;;;2.10;1.45;;;;;;;;;;7331606;19;162424;-14
2022/03/04 18:31:21;;;;;;;2.90;1.52;;;;;;;;;;7334058;19;153899;-15
2022/03/04 18:33:52;;;;;;;4.30;1.40;;;;;;;;;;7333178;19;153510;-14
2022/03/04 18:36:24;;;;;;;2.60;1.40;;;;;;;;;;7334482;19;161917;-15
2022/03/04 18:41:41;;;;;;;3.92;1.38;;;;;;;;;;7334940;19;154013;-13
2022/03/04 18:44:13;;;;;;;4.03;1.35;;;;;;;;;;7333387;19;153506;-14
2022/03/04 18:46:44;;;;;;;4.03;1.98;;;;;;;;;;7334499;19;162036;-13
2022/03/04 18:49:16;;;;;;;3.80;1.58;;;;;;;;;;7333055;19;162542;-14
2022/03/04 18:51:47;;;;;;;2.22;1.38;;;;;;;;;;7336728;19;153998;-14
2022/03/04 18:54:19;;;;;;;3.00;1.25;;;;;;;;;;7334048;19;153525;-15
2022/03/04 18:56:53;;;;;;;2.38;1.20;;;;;;;;;;7333587;19;161808;-14
2022/03/04 18:59:24;;;;;;;3.75;1.50;;;;;;;;;;7333474;19;162379;-13
2022/03/04 19:01:57;;;;;;;1.55;1.20;;;;;;;;;;7334048;19;153984;-14
2022/03/04 19:04:32;;;;;;;4.00;1.35;;;;;;;;;;7338018;19;153702;-15
2022/03/04 19:07:03;;;;;;;2.85;1.63;;;;;;;;;;7333658;19;161850;-14
2022/03/04 19:09:35;;;;;;;2.55;1.40;;;;;;;;;;7331411;19;162378;-14
2022/03/04 19:12:10;;;;;;;3.13;1.35;;;;;;;;;;7333473;19;154081;-13
2022/03/04 19:14:44;;;;;;;2.13;1.30;;;;;;;;;;7333483;19;153737;-13
2022/03/04 19:17:15;;;;;;;2.00;1.40;;;;;;;;;;7332041;19;161920;-13
2022/03/04 19:19:46;;;;;;;2.97;2.17;;;;;;;;;;7332719;19;162378;-14
2022/03/04 19:22:18;;;;;;;2.58;1.48;;;;;;;;;;7333200;19;154183;-15
2022/03/04 19:24:49;;;;;;;3.35;1.30;;;;;;;;;;7333275;19;153643;-14
2022/03/04 19:27:23;;;;;;;1.25;1.00;;;;;;;;;;7332769;19;162163;-14
2022/03/04 19:29:55;;;;;;;1.75;1.65;;;;;;;;;;7328894;19;162528;-14
2022/03/04 19:32:29;;;;;;;2.65;1.30;;;;;;;;;;7333199;19;154143;-14
2022/03/04 19:35:00;;;;;;;1.40;1.30;;;;;;;;;;7330135;19;153546;-15
2022/03/04 19:37:32;;;;;;;2.50;1.48;;;;;;;;;;7332637;19;161781;-13
2022/03/04 19:40:07;;;;;;;1.40;1.30;;;;;;;;;;7331436;19;163119;-14
2022/03/04 19:42:42;;;;;;;2.92;1.50;;;;;;;;;;7332872;19;154178;-14
2022/03/04 19:45:14;;;;;;;2.10;1.67;;;;;;;;;;7333074;19;153674;-13
2022/03/04 19:47:46;;;;;;;2.35;1.40;;;;;;;;;;7335012;19;161880;-13
2022/03/04 19:50:17;;;;;;;5.85;1.83;;;;;;;;;;7335384;19;162335;-14
2022/03/04 19:52:49;;;;;;;4.25;1.55;;;;;;;;;;7334771;19;154001;-14
2022/03/04 19:55:21;;;;;;;2.10;1.30;;;;;;;;;;7328153;19;153581;-15
2022/03/04 19:57:56;;;;;;;2.50;1.10;;;;;;;;;;7332588;19;161836;-25
2022/03/04 20:00:27;;;;;;;2.83;1.55;;;;;;;;;;7331777;19;162616;-14
2022/03/04 20:02:58;;;;;;;1.58;1.48;;;;;;;;;;7332350;19;154119;-16
2022/03/04 20:05:30;;;;;;;4.75;1.92;;;;;;;;;;7332214;19;153711;-14
2022/03/04 20:08:03;;;;;;;3.33;1.65;;;;;;;;;;7331325;19;162013;-14
2022/03/04 20:10:34;;;;;;;5.32;2.10;;;;;;;;;;7332205;19;163208;-15
2022/03/04 20:13:08;;;;;;;2.53;1.83;;;;;;;;;;7331915;19;154123;-14
2022/03/04 20:15:40;;;;;;;5.53;2.10;;;;;;;;;;7331858;19;153659;-14
2022/03/04 20:18:11;;;;;;;2.67;1.35;;;;;;;;;;7331316;19;161988;-14
2022/03/04 20:20:43;;;;;;;2.25;1.75;;;;;;;;;;7331341;19;162527;-15
2022/03/04 20:23:14;;;;;;;1.85;1.38;;;;;;;;;;7331612;19;154409;-14
2022/03/04 20:25:47;;;;;;;6.97;1.95;;;;;;;;;;7332320;19;153559;-15
2022/03/04 20:28:22;;;;;;;3.47;1.60;;;;;;;;;;7331844;19;161949;-13
2022/03/04 20:30:55;;;;;;;2.20;1.40;;;;;;;;;;7334000;19;162535;-16
2022/03/04 20:33:27;;;;;;;2.50;1.63;;;;;;;;;;7331163;19;154094;-14
2022/03/04 20:36:13;;;;;;;2.85;1.42;;;;;;;;;;7331420;19;153458;-14
2022/03/04 20:38:47;;;;;;;1.93;1.57;;;;;;;;;;7334785;19;161847;-14
2022/03/04 20:41:20;;;;;;;2.25;1.45;;;;;;;;;;7333344;19;162523;-15
2022/03/04 20:43:54;;;;;;;;;;;;;;;;;;7331590;19;153904;-14
2022/03/04 20:46:26;;;;;;;1.73;1.30;;;;;;;;;;7331205;19;153752;-15
2022/03/04 20:48:57;;;;;;;3.10;1.40;;;;;;;;;;7329952;19;161796;-14
2022/03/04 20:51:29;;;;;;;2.25;1.60;;;;;;;;;;7330520;19;162511;-14
2022/03/04 20:54:00;;;;;;;2.20;1.38;;;;;;;;;;7330921;19;154033;-14
2022/03/04 20:56:32;;;;;;;3.13;2.10;;;;;;;;;;7333025;19;153539;-15
2022/03/04 20:59:06;;;;;;;3.40;2.17;;;;;;;;;;7332406;19;161995;-14
2022/03/04 21:01:38;;;;;;;7.75;2.00;;;;;;;;;;7330159;19;162417;-15
2022/03/04 21:04:09;;;;;;;4.55;1.85;;;;;;;;;;7330662;19;154313;-14
2022/03/04 21:06:40;;;;;;;4.95;2.00;;;;;;;;;;7330313;19;153574;-13
2022/03/04 21:09:12;;;;;;;5.82;2.17;;;;;;;;;;7329441;19;162005;-14
2022/03/04 21:11:43;;;;;;;2.03;1.70;;;;;;;;;;7333000;19;162347;-14
2022/03/04 21:14:35;;;;;;;2.45;1.80;;;;;;;;;;7330984;19;154070;-14
2022/03/04 21:17:19;;;;;;;1.75;1.50;;;;;;;;;;7328831;19;153556;-14
2022/03/04 21:19:51;;;;;;;3.90;2.13;;;;;;;;;;7329689;19;161927;-14
2022/03/04 21:22:22;;;;;;;2.75;1.60;;;;;;;;;;7329638;19;162555;-15
2022/03/04 21:24:54;;;;;;;3.00;2.00;;;;;;;;;;7329964;19;154207;-16
2022/03/04 21:27:25;;;;;;;1.65;1.55;;;;;;;;;;7329661;19;153489;-16
2022/03/04 21:30:00;;;;;;;4.82;1.85;;;;;;;;;;7328161;19;161994;-14
2022/03/04 21:32:31;;;;;;;2.08;1.60;;;;;;;;;;7329171;19;162392;-14
2022/03/04 21:35:03;;;;;;;1.88;1.45;;;;;;;;;;7328089;19;153910;-14
2022/03/04 21:37:34;;;;;;;3.30;1.98;;;;;;;;;;7329244;19;153892;-14
2022/03/04 21:40:07;;;;;;;1.60;1.50;;;;;;;;;;7328921;19;162183;-14
2022/03/04 21:42:39;;;;;;;1.73;1.40;;;;;;;;;;7328680;19;162652;-14
2022/03/04 21:45:13;;;;;;;1.45;1.27;;;;;;;;;;7329393;19;153996;-13
2022/03/04 21:47:45;;;;;;;1.58;1.25;;;;;;;;;;7336137;19;153811;-13
2022/03/04 21:50:17;;;;;;;4.53;2.72;;;;;;;;;;7334364;19;162124;-14
2022/03/04 21:52:48;;;;;;;3.75;2.17;;;;;;;;;;7335279;19;162427;-13
2022/03/04 21:55:20;;;;;;;2.95;1.73;;;;;;;;;;7336015;19;154215;-13
2022/03/04 21:57:51;;;;;;;2.50;1.70;;;;;;;;;;7337945;19;153715;-15
2022/03/04 22:00:27;;;;;;;2.63;1.70;;;;;;;;;;7335177;19;161645;-15
2022/03/04 22:02:58;;;;;;;3.33;1.70;;;;;;;;;;7335020;19;162413;-15
2022/03/04 22:05:30;;;;;;;2.05;1.58;;;;;;;;;;7335542;19;154024;-13
2022/03/04 22:08:01;;;;;;;5.03;1.70;;;;;;;;;;7335574;19;153578;-14
2022/03/04 22:10:33;;;;;;;3.38;1.80;;;;;;;;;;7336588;19;161934;-14
2022/03/04 22:13:04;;;;;;;2.70;1.75;;;;;;;;;;7337618;19;162416;-15
2022/03/04 22:15:38;;;;;;;3.15;1.95;;;;;;;;;;7337492;19;153916;-15
2022/03/04 22:18:09;;;;;;;1.63;1.35;;;;;;;;;;7338243;19;153633;-15
2022/03/04 22:20:41;;;;;;;3.60;1.95;;;;;;;;;;7337919;19;162109;-16
2022/03/04 22:23:13;;;;;;;1.88;1.58;;;;;;;;;;7337817;19;162311;-15
2022/03/04 22:25:45;;;;;;;3.57;2.03;;;;;;;;;;7337565;19;153996;-14
2022/03/04 22:28:16;;;;;;;2.00;1.42;;;;;;;;;;7337754;19;153521;-14
2022/03/04 22:30:50;;;;;;;2.40;1.70;;;;;;;;;;7333086;19;161863;-15
2022/03/04 22:33:22;;;;;;;2.63;1.30;;;;;;;;;;7326151;19;162322;-14
2022/03/04 22:35:54;;;;;;;2.70;1.20;;;;;;;;;;7323192;19;154110;-14
2022/03/04 22:38:25;;;;;;;2.67;1.67;;;;;;;;;;7325814;19;153576;-15
2022/03/04 22:40:56;;;;;;;2.08;1.58;;;;;;;;;;7325541;19;162472;-14
2022/03/04 22:43:28;;;;;;;1.45;1.33;;;;;;;;;;7325059;19;163302;-15
2022/03/04 22:46:02;;;;;;;2.60;1.73;;;;;;;;;;7325067;19;154006;-14
2022/03/04 22:48:33;;;;;;;2.38;1.45;;;;;;;;;;7327227;19;153506;-15
2022/03/04 22:51:05;;;;;;;2.22;1.48;;;;;;;;;;7325880;19;162112;-16
2022/03/04 22:53:37;;;;;;;1.85;1.33;;;;;;;;;;7336768;19;162548;-16
2022/03/04 22:56:08;;;;;;;2.40;1.48;;;;;;;;;;7336610;19;154085;-14
2022/03/04 22:58:39;;;;;;;2.80;1.23;;;;;;;;;;7334128;19;153533;-13
2022/03/04 23:01:27;;;;;;;1.80;1.50;;;;;;;;;;7324586;19;161866;-14
2022/03/04 23:09:28;;;;;;;2.05;1.52;;;;;;;;;;7321452;19;154713;-12
2022/03/04 23:11:57;;;;;;;1.40;1.17;;;;;;;;;;7322326;19;162254;-13
2022/03/04 23:14:29;;;;;;;3.85;1.60;;;;;;;;;;7320389;19;162465;-13
2022/03/04 23:17:03;;;;;;;2.57;1.20;;;;;;;;;;7320757;19;154048;-14
2022/03/04 23:19:34;;;;;;;1.75;1.45;;;;;;;;;;7320069;19;153744;-14
2022/03/04 23:22:06;;;;;;;1.85;1.38;;;;;;;;;;7320227;19;161790;-13
2022/03/04 23:24:38;;;;;;;1.50;1.35;;;;;;;;;;7320110;19;162464;-16
2022/03/04 23:27:09;;;;;;;1.25;1.15;;;;;;;;;;7324955;19;154030;-14
2022/03/04 23:29:41;;;;;;;1.50;1.40;;;;;;;;;;7320260;19;153702;-15
2022/03/04 23:32:15;;;;;;;1.80;1.50;;;;;;;;;;7317370;19;162039;-14
2022/03/04 23:34:46;;;;;;;1.67;1.30;;;;;;;;;;7318740;19;162597;-15
2022/03/04 23:37:18;;;;;;;2.80;1.63;;;;;;;;;;7320570;19;154146;-16
2022/03/04 23:39:49;;;;;;;1.55;1.45;;;;;;;;;;7319712;19;153503;-14
2022/03/04 23:42:20;;;;;;;1.10;1.10;;;;;;;;;;7323957;19;161980;-13
2022/03/04 23:44:52;;;;;;;1.88;1.55;;;;;;;;;;7319750;19;162550;-14
2022/03/04 23:47:26;;;;;;;1.42;1.33;;;;;;;;;;7319249;19;154079;-14
2022/03/04 23:49:57;;;;;;;1.52;1.42;;;;;;;;;;7324605;19;153500;-14
2022/03/04 23:52:28;;;;;;;2.13;1.20;;;;;;;;;;7321312;19;161990;-16
2022/03/04 23:55:00;;;;;;;1.88;1.58;;;;;;;;;;7320139;19;162871;-15
2022/03/04 23:57:31;;;;;;;1.38;1.17;;;;;;;;;;7335495;19;153974;-14
